logo tempoitalia

Diretta Meteo Jerez De La Frontera, Spagnalunedì 31 agosto ore 07:00

Mappa
Sereno 17 °C Sereno 24 Ore: T.min 15 T.max 36
Ponente Nord Km/h 3.7 Punto di rugiada: 13 °C Umidità: 77% Visibilità: 10 Km
Il sole sorge alle: 07:54 Il sole tramonta alle: 20:54
31 Agosto 2026 07:00 tempo osservato: Sereno Sereno 17 77 1016 vento: Nord N 3.7
31 Agosto 2026 06:30 tempo osservato: Sereno Sereno 18 72 1016 vento: Nord N 0
31 Agosto 2026 06:00 tempo osservato: Sereno Sereno 18 72 1016 vento: Nord N 1.8
31 Agosto 2026 05:30 tempo osservato: Sereno Sereno 18 72 1016 vento: Nord N 3.7
31 Agosto 2026 05:00 tempo osservato: Sereno Sereno 18 77 1016 vento: Nord N 5.5
31 Agosto 2026 04:30 tempo osservato: Sereno Sereno 18 72 1016 vento: Nord N 3.7
31 Agosto 2026 04:00 tempo osservato: Sereno Sereno 19 68 1016 vento: Nord N 3.7
31 Agosto 2026 03:30 tempo osservato: Sereno Sereno 19 68 1016 vento: Nord N 5.5
31 Agosto 2026 03:00 tempo osservato: Sereno Sereno 20 64 1016 vento: Nord N 3.7
31 Agosto 2026 02:30 tempo osservato: Sereno Sereno 20 68 1016 vento: Nord N 3.7
31 Agosto 2026 02:00 tempo osservato: Sereno Sereno 21 68 1016 vento: Nord N 1.8
31 Agosto 2026 01:30 tempo osservato: Sereno Sereno 21 64 1017 vento: Nord N 3.7
31 Agosto 2026 01:00 tempo osservato: Sereno Sereno 21 68 1017 vento: Nord N 1.8
31 Agosto 2026 00:30 tempo osservato: Sereno Sereno 21 68 1017 vento: Nord N 3.7
31 Agosto 2026 00:00 tempo osservato: Sereno Sereno 21 68 1016 vento: Nord N 3.7
30 Agosto 2026 23:30 tempo osservato: Sereno Sereno 22 64 1016 vento: Nord N 5.5
30 Agosto 2026 23:00 tempo osservato: Sereno Sereno 24 60 1016 vento: Nord N 3.7
30 Agosto 2026 22:30 tempo osservato: Sereno Sereno 24 60 1016 vento: Nord N 1.8
30 Agosto 2026 22:00 tempo osservato: Sereno Sereno 25 57 1016 vento: Nord N 5.5
30 Agosto 2026 21:30 tempo osservato: Sereno Sereno 26 54 1015 vento: Nord O 11.1
30 Agosto 2026 21:00 tempo osservato: Sereno Sereno 28 48 1015 vento: Nord O 11.1
30 Agosto 2026 20:30 tempo osservato: Sereno Sereno 30 35 1015 vento: Nord O 13
30 Agosto 2026 20:00 tempo osservato: Sereno Sereno 32 27 1015 vento: Nord O 16.7
30 Agosto 2026 19:30 tempo osservato: Sereno Sereno 32 25 1015 vento: Nord O/NO 18.5
30 Agosto 2026 19:00 tempo osservato: Sereno Sereno 33 27 1015 vento: Nord O 16.7
30 Agosto 2026 18:30 tempo osservato: Sereno Sereno 33 22 1015 vento: Nord O 18.5
30 Agosto 2026 18:00 tempo osservato: Sereno Sereno 35 19 1015 vento: Nord O 16.7
30 Agosto 2026 17:30 tempo osservato: Sereno Sereno 34 21 1015 vento: Nord O 16.7
30 Agosto 2026 17:00 tempo osservato: Sereno Sereno 34 21 1015 vento: Nord O/SO 16.7
30 Agosto 2026 16:30 tempo osservato: Sereno Sereno 35 20 1015 vento: Nord O 18.5
30 Agosto 2026 16:00 tempo osservato: Sereno Sereno 35 21 1016 vento: Nord O 13
30 Agosto 2026 15:30 tempo osservato: Sereno Sereno 36 19 1016 vento: Nord N 9.3
30 Agosto 2026 15:00 tempo osservato: Sereno Sereno 35 21 1016 vento: Nord N 3.7
30 Agosto 2026 14:30 tempo osservato: Sereno Sereno 34 23 1017 vento: Nord N 5.5
30 Agosto 2026 14:00 tempo osservato: Sereno Sereno 33 24 1017 vento: Nord N 3.7
30 Agosto 2026 13:30 tempo osservato: Sereno Sereno 32 25 1017 vento: Nord N 3.7
30 Agosto 2026 13:00 tempo osservato: Sereno Sereno 30 28 1017 vento: Nord N 3.7
30 Agosto 2026 12:30 tempo osservato: Sereno Sereno 29 32 1017 vento: Nord N 3.7
30 Agosto 2026 12:00 tempo osservato: Sereno Sereno 29 32 1017 vento: Nord N 3.7
30 Agosto 2026 11:30 tempo osservato: Sereno Sereno 27 39 1017 vento: Nord N 3.7
30 Agosto 2026 11:00 tempo osservato: Sereno Sereno 26 41 1017 vento: Nord N 3.7
30 Agosto 2026 10:30 tempo osservato: Sereno Sereno 24 47 1017 vento: Nord N 1.8
30 Agosto 2026 10:00 tempo osservato: Sereno Sereno 23 46 1017 vento: Nord N 1.8
30 Agosto 2026 09:30 tempo osservato: Sereno Sereno 21 52 1017 vento: Nord N 0
30 Agosto 2026 09:00 tempo osservato: Sereno Sereno 18 59 1017 vento: Nord N 1.8
30 Agosto 2026 08:30 tempo osservato: Sereno Sereno 15 76 1016 vento: Nord N 3.7
30 Agosto 2026 08:00 tempo osservato: Sereno Sereno 15 72 1016 vento: Nord N 3.7